Time;durP1;ratioP1;P1;durP2;ratioP2;P2;SDS_P1;SDS_P2;PMS_P1;PMS_P2;Temp;Humidity;BMP_temperature;BMP_pressure;BME280_temperature;BME280_humidity;BME280_pressure;Samples;Min_cycle;Max_cycle;Signal;HPM_P1;HPM_P2
2024/03/08 00:01:44;;;;;;;5.88;4.88;;;;;;;;;;5005758;28;20213;-48
2024/03/08 00:04:10;;;;;;;6.72;4.70;;;;;;;;;;5007100;28;20196;-48
2024/03/08 00:06:36;;;;;;;5.10;4.47;;;;;;;;;;4995636;28;20239;-48
2024/03/08 00:09:02;;;;;;;7.50;4.75;;;;;;;;;;5002125;28;20232;-48
2024/03/08 00:11:28;;;;;;;5.10;4.30;;;;;;;;;;5009602;28;20196;-48
2024/03/08 00:13:54;;;;;;;6.68;4.63;;;;;;;;;;5016303;28;20184;-47
2024/03/08 00:16:20;;;;;;;6.65;4.90;;;;;;;;;;5005351;28;20181;-47
2024/03/08 00:18:49;;;;;;;7.10;4.47;;;;;;;;;;5014140;28;20526;-48
2024/03/08 00:21:15;;;;;;;6.55;4.60;;;;;;;;;;5003262;28;20207;-48
2024/03/08 00:23:41;;;;;;;5.55;4.40;;;;;;;;;;5014756;28;20173;-48
2024/03/08 00:26:07;;;;;;;6.28;4.57;;;;;;;;;;5011018;28;20243;-48
2024/03/08 00:28:36;;;;;;;6.95;4.90;;;;;;;;;;5009844;28;20189;-48
2024/03/08 00:31:02;;;;;;;6.00;3.92;;;;;;;;;;5001916;28;20258;-48
2024/03/08 00:33:28;;;;;;;6.22;4.40;;;;;;;;;;5001892;28;20177;-48
2024/03/08 00:35:54;;;;;;;5.63;4.20;;;;;;;;;;4996713;28;20275;-48
2024/03/08 00:38:20;;;;;;;6.57;4.80;;;;;;;;;;5000158;28;20636;-48
2024/03/08 00:40:46;;;;;;;5.28;4.40;;;;;;;;;;4992703;28;20252;-48
2024/03/08 00:43:13;;;;;;;6.18;5.20;;;;;;;;;;4998675;28;20181;-48
2024/03/08 00:45:41;;;;;;;5.07;4.25;;;;;;;;;;4997900;28;20169;-48
2024/03/08 00:48:07;;;;;;;6.80;4.93;;;;;;;;;;5009003;28;20535;-48
2024/03/08 00:50:33;;;;;;;5.32;4.00;;;;;;;;;;5012526;28;20177;-48
2024/03/08 00:52:59;;;;;;;6.22;4.80;;;;;;;;;;5007421;28;20558;-48
2024/03/08 00:55:25;;;;;;;6.40;4.88;;;;;;;;;;5005918;28;20456;-48
2024/03/08 00:57:53;;;;;;;5.97;4.47;;;;;;;;;;5010333;28;20567;-48
2024/03/08 01:00:21;;;;;;;6.07;4.35;;;;;;;;;;5006088;28;20212;-48
2024/03/08 01:02:46;;;;;;;5.97;4.30;;;;;;;;;;5008455;28;20323;-48
2024/03/08 01:05:12;;;;;;;6.30;4.32;;;;;;;;;;5010068;28;20696;-48
2024/03/08 01:07:39;;;;;;;5.15;4.28;;;;;;;;;;5002576;28;20199;-48
2024/03/08 01:10:09;;;;;;;4.90;4.32;;;;;;;;;;5003996;28;20212;-48
2024/03/08 01:12:35;;;;;;;6.03;4.30;;;;;;;;;;5001622;28;20560;-48
2024/03/08 01:15:01;;;;;;;6.22;4.68;;;;;;;;;;5009853;28;20185;-48
2024/03/08 01:17:27;;;;;;;5.55;4.50;;;;;;;;;;5005939;28;20269;-48
2024/03/08 01:19:56;;;;;;;6.55;4.70;;;;;;;;;;5006116;28;20208;-48
2024/03/08 01:22:22;;;;;;;4.75;4.18;;;;;;;;;;5013034;28;20202;-48
2024/03/08 01:24:48;;;;;;;5.38;4.35;;;;;;;;;;5011464;28;20227;-48
2024/03/08 01:27:14;;;;;;;5.30;4.40;;;;;;;;;;5013738;28;20347;-48
2024/03/08 01:29:40;;;;;;;5.97;4.45;;;;;;;;;;5010370;28;20195;-48
2024/03/08 01:32:06;;;;;;;7.20;5.05;;;;;;;;;;4996980;28;20184;-48
2024/03/08 01:34:32;;;;;;;5.68;4.25;;;;;;;;;;5008630;28;20475;-48
2024/03/08 01:36:59;;;;;;;5.53;4.72;;;;;;;;;;5007783;28;20231;-48
2024/03/08 01:39:26;;;;;;;5.70;4.43;;;;;;;;;;5006123;28;20188;-48
2024/03/08 01:41:52;;;;;;;4.80;4.30;;;;;;;;;;5008133;28;20291;-48
2024/03/08 01:44:18;;;;;;;5.80;4.50;;;;;;;;;;5007465;28;20231;-48
2024/03/08 01:46:48;;;;;;;6.57;4.78;;;;;;;;;;5010260;28;20203;-48
2024/03/08 01:49:14;;;;;;;6.28;4.82;;;;;;;;;;5002494;28;20256;-48
2024/03/08 01:51:42;;;;;;;6.25;4.63;;;;;;;;;;4998568;28;20535;-48
2024/03/08 01:54:12;;;;;;;4.97;4.47;;;;;;;;;;5010802;28;20323;-48
2024/03/08 01:56:39;;;;;;;5.47;4.40;;;;;;;;;;5003486;28;20556;-48
2024/03/08 01:59:07;;;;;;;5.55;4.22;;;;;;;;;;5009521;28;20188;-47
2024/03/08 02:01:33;;;;;;;5.82;4.60;;;;;;;;;;5010393;28;20642;-47
2024/03/08 02:04:00;;;;;;;4.97;4.38;;;;;;;;;;5004806;28;20200;-47
2024/03/08 02:06:25;;;;;;;6.35;4.97;;;;;;;;;;5003483;28;20219;-47
2024/03/08 02:08:51;;;;;;;4.82;4.03;;;;;;;;;;5010471;28;20219;-47
2024/03/08 02:11:18;;;;;;;5.40;4.50;;;;;;;;;;5006951;28;20243;-47
2024/03/08 02:13:44;;;;;;;6.65;4.70;;;;;;;;;;5005145;28;20663;-47
2024/03/08 02:16:10;;;;;;;6.30;4.07;;;;;;;;;;5010573;28;20271;-47
2024/03/08 02:18:38;;;;;;;4.97;4.20;;;;;;;;;;5007173;28;20260;-47
2024/03/08 02:21:05;;;;;;;4.97;3.97;;;;;;;;;;5011118;28;20176;-47
2024/03/08 02:23:31;;;;;;;4.85;3.95;;;;;;;;;;5012754;28;20223;-47
2024/03/08 02:25:57;;;;;;;4.75;4.25;;;;;;;;;;5011212;28;20212;-48
2024/03/08 02:28:25;;;;;;;5.45;4.18;;;;;;;;;;5019710;28;20625;-48
2024/03/08 02:30:50;;;;;;;5.60;4.25;;;;;;;;;;5004351;28;20176;-48
2024/03/08 02:33:17;;;;;;;4.50;4.07;;;;;;;;;;4995556;28;20177;-47
2024/03/08 02:35:46;;;;;;;6.05;4.75;;;;;;;;;;5004937;28;20185;-47
2024/03/08 02:38:22;;;;;;;5.55;4.13;;;;;;;;;;5004128;28;20184;-47
2024/03/08 02:40:49;;;;;;;5.97;4.32;;;;;;;;;;5008806;28;20181;-48
2024/03/08 02:43:15;;;;;;;6.45;4.60;;;;;;;;;;5007808;28;20559;-48
2024/03/08 02:45:42;;;;;;;6.18;4.68;;;;;;;;;;5003578;28;20220;-48
2024/03/08 02:48:08;;;;;;;7.50;4.53;;;;;;;;;;5001902;28;20764;-48
2024/03/08 02:50:37;;;;;;;5.65;4.25;;;;;;;;;;5001992;28;20192;-48
2024/03/08 02:53:03;;;;;;;5.45;4.47;;;;;;;;;;4999747;28;20192;-48
2024/03/08 02:55:29;;;;;;;6.28;4.38;;;;;;;;;;5002125;28;20189;-48
2024/03/08 02:57:55;;;;;;;5.63;4.30;;;;;;;;;;4999607;28;20560;-48
2024/03/08 03:00:24;;;;;;;6.05;4.40;;;;;;;;;;4997840;28;20193;-48
2024/03/08 03:02:53;;;;;;;4.85;3.97;;;;;;;;;;5003007;28;20211;-48
2024/03/08 03:05:20;;;;;;;5.63;4.63;;;;;;;;;;4999639;28;20677;-48
2024/03/08 03:07:46;;;;;;;6.18;4.40;;;;;;;;;;5000577;28;20425;-48
2024/03/08 03:10:16;;;;;;;5.82;4.47;;;;;;;;;;5005835;28;20259;-48
2024/03/08 03:12:43;;;;;;;5.28;4.22;;;;;;;;;;5009486;28;20191;-48
2024/03/08 03:15:09;;;;;;;4.72;3.97;;;;;;;;;;4997153;28;20604;-48
2024/03/08 03:17:35;;;;;;;5.75;4.55;;;;;;;;;;4999963;28;20199;-48
2024/03/08 03:20:09;;;;;;;5.30;4.20;;;;;;;;;;5007757;28;20191;-48
2024/03/08 03:22:35;;;;;;;5.20;3.72;;;;;;;;;;5012436;28;20218;-48
2024/03/08 03:25:02;;;;;;;5.30;4.22;;;;;;;;;;5016582;28;20177;-48
2024/03/08 03:27:30;;;;;;;5.80;4.25;;;;;;;;;;5012851;28;20211;-48
2024/03/08 03:29:57;;;;;;;4.30;3.83;;;;;;;;;;5004824;28;20460;-48
2024/03/08 03:32:23;;;;;;;4.35;3.90;;;;;;;;;;5015967;28;20195;-48
2024/03/08 03:34:52;;;;;;;6.03;4.30;;;;;;;;;;5010483;28;20189;-48
2024/03/08 03:37:19;;;;;;;4.53;4.13;;;;;;;;;;5008090;28;20207;-48
2024/03/08 03:39:48;;;;;;;5.57;4.32;;;;;;;;;;5000702;28;20627;-48
2024/03/08 03:42:18;;;;;;;5.80;4.18;;;;;;;;;;5006004;28;20583;-48
2024/03/08 03:44:48;;;;;;;6.50;4.28;;;;;;;;;;5009871;28;20197;-48
2024/03/08 03:47:14;;;;;;;5.35;4.13;;;;;;;;;;5009755;28;20208;-48
2024/03/08 03:49:40;;;;;;;5.53;4.45;;;;;;;;;;5007251;28;20188;-48
2024/03/08 03:52:06;;;;;;;4.32;3.78;;;;;;;;;;5001431;28;20231;-48
2024/03/08 03:54:33;;;;;;;5.45;4.20;;;;;;;;;;5008511;28;20236;-48
2024/03/08 03:57:00;;;;;;;4.72;4.22;;;;;;;;;;5012557;28;20272;-48
2024/03/08 03:59:27;;;;;;;4.85;4.10;;;;;;;;;;5012623;28;20180;-48
2024/03/08 04:01:54;;;;;;;7.40;4.75;;;;;;;;;;5001518;28;20484;-48
2024/03/08 04:04:20;;;;;;;4.70;4.03;;;;;;;;;;4998511;28;20204;-48
2024/03/08 04:06:46;;;;;;;5.50;4.38;;;;;;;;;;5007170;28;20227;-48
2024/03/08 04:09:12;;;;;;;6.38;4.28;;;;;;;;;;5014594;28;20177;-48
2024/03/08 04:11:38;;;;;;;4.82;4.15;;;;;;;;;;5000737;28;20473;-48
2024/03/08 04:14:05;;;;;;;5.05;4.15;;;;;;;;;;5003714;28;20192;-48
2024/03/08 04:16:31;;;;;;;5.80;4.47;;;;;;;;;;5011148;28;20199;-48
2024/03/08 04:18:57;;;;;;;5.22;4.32;;;;;;;;;;5007150;28;20259;-48
2024/03/08 04:21:23;;;;;;;7.97;4.90;;;;;;;;;;5013303;28;20291;-48
2024/03/08 04:23:49;;;;;;;8.38;4.63;;;;;;;;;;5013252;28;20181;-49
2024/03/08 04:26:15;;;;;;;7.30;4.97;;;;;;;;;;5009542;28;20272;-55
2024/03/08 04:28:41;;;;;;;5.43;4.32;;;;;;;;;;5005098;28;20184;-51
2024/03/08 04:31:07;;;;;;;5.57;4.18;;;;;;;;;;5004561;28;20264;-50
2024/03/08 04:33:35;;;;;;;9.32;4.10;;;;;;;;;;5008976;28;20267;-49
2024/03/08 04:36:04;;;;;;;7.25;4.28;;;;;;;;;;5007494;28;20554;-56
2024/03/08 04:38:30;;;;;;;5.45;4.38;;;;;;;;;;5008116;28;20256;-46
2024/03/08 04:40:56;;;;;;;7.95;3.95;;;;;;;;;;5007548;28;20180;-51
2024/03/08 04:43:25;;;;;;;8.88;4.68;;;;;;;;;;5010949;28;20215;-51
2024/03/08 04:45:51;;;;;;;13.70;4.80;;;;;;;;;;5013009;28;20492;-46
2024/03/08 04:48:17;;;;;;;7.50;4.38;;;;;;;;;;5010916;28;20544;-48
2024/03/08 04:50:44;;;;;;;6.40;4.15;;;;;;;;;;5014755;28;20168;-48
2024/03/08 04:53:10;;;;;;;18.67;4.68;;;;;;;;;;5004518;28;20253;-48
2024/03/08 04:55:37;;;;;;;7.68;4.45;;;;;;;;;;5002836;28;20227;-48
2024/03/08 04:58:04;;;;;;;9.02;4.97;;;;;;;;;;4999802;28;20199;-48
2024/03/08 05:00:30;;;;;;;9.82;4.47;;;;;;;;;;5007274;28;20595;-48
2024/03/08 05:02:56;;;;;;;7.72;4.38;;;;;;;;;;5003007;28;20208;-49
2024/03/08 05:05:22;;;;;;;8.43;4.88;;;;;;;;;;5005232;28;20170;-49
2024/03/08 05:07:49;;;;;;;6.30;4.05;;;;;;;;;;5010933;28;20238;-49
2024/03/08 05:10:17;;;;;;;7.22;4.55;;;;;;;;;;4999592;28;20180;-49
2024/03/08 05:12:43;;;;;;;7.45;4.63;;;;;;;;;;5010273;28;20188;-49
2024/03/08 05:15:09;;;;;;;20.05;6.57;;;;;;;;;;4999442;28;20565;-50
2024/03/08 05:17:35;;;;;;;30.55;7.80;;;;;;;;;;5012690;28;20207;-45
2024/03/08 05:20:07;;;;;;;20.85;7.60;;;;;;;;;;5000028;28;20181;-48
2024/03/08 05:22:33;;;;;;;20.15;7.18;;;;;;;;;;5027025;28;20212;-48
2024/03/08 05:24:59;;;;;;;23.08;7.57;;;;;;;;;;5014112;28;20196;-48
2024/03/08 05:27:25;;;;;;;27.80;7.53;;;;;;;;;;5012939;28;20643;-54
2024/03/08 05:29:51;;;;;;;23.77;6.70;;;;;;;;;;5005145;28;20190;-48
2024/03/08 05:32:17;;;;;;;22.25;6.78;;;;;;;;;;5008042;28;20188;-49
2024/03/08 05:34:44;;;;;;;23.02;7.88;;;;;;;;;;5003640;28;20596;-43
2024/03/08 05:37:11;;;;;;;24.60;6.78;;;;;;;;;;5013036;28;20263;-47
2024/03/08 05:39:37;;;;;;;15.35;6.65;;;;;;;;;;5007828;28;20192;-47
2024/03/08 05:42:03;;;;;;;21.15;7.50;;;;;;;;;;4999732;28;20197;-46
2024/03/08 05:44:28;;;;;;;18.15;7.18;;;;;;;;;;4999431;28;20193;-45
2024/03/08 05:46:55;;;;;;;17.45;6.72;;;;;;;;;;5010855;28;20184;-47
2024/03/08 05:49:21;;;;;;;30.10;7.55;;;;;;;;;;5005892;28;20556;-46
2024/03/08 05:51:47;;;;;;;17.95;6.75;;;;;;;;;;5005996;28;20277;-46
2024/03/08 05:54:13;;;;;;;21.23;7.13;;;;;;;;;;4995932;28;20220;-44
2024/03/08 05:56:43;;;;;;;22.45;7.90;;;;;;;;;;5004930;28;20220;-53
2024/03/08 05:59:10;;;;;;;16.92;7.38;;;;;;;;;;5003996;28;20484;-49
2024/03/08 06:01:36;;;;;;;17.23;7.28;;;;;;;;;;5002606;28;20223;-47
2024/03/08 06:04:02;;;;;;;14.55;6.78;;;;;;;;;;5000864;28;20184;-45
2024/03/08 06:06:28;;;;;;;17.52;6.70;;;;;;;;;;5012677;28;20267;-43
2024/03/08 06:08:56;;;;;;;13.27;6.75;;;;;;;;;;5004293;28;20291;-45
2024/03/08 06:11:22;;;;;;;14.57;6.43;;;;;;;;;;5008939;28;20207;-46
2024/03/08 06:13:49;;;;;;;21.00;5.80;;;;;;;;;;5004459;28;20185;-48
2024/03/08 06:16:15;;;;;;;15.60;6.78;;;;;;;;;;5001431;28;20199;-44
2024/03/08 06:18:41;;;;;;;18.98;6.15;;;;;;;;;;4999549;28;20192;-47
2024/03/08 06:21:09;;;;;;;22.00;7.43;;;;;;;;;;5005569;28;20194;-48
2024/03/08 06:23:38;;;;;;;13.15;6.00;;;;;;;;;;5006135;28;20184;-50
2024/03/08 06:26:04;;;;;;;9.52;5.55;;;;;;;;;;5001630;28;20181;-52
2024/03/08 06:28:30;;;;;;;11.27;4.88;;;;;;;;;;5003039;28;20634;-50
2024/03/08 06:30:56;;;;;;;13.88;5.03;;;;;;;;;;5001912;28;20177;-50
2024/03/08 06:33:22;;;;;;;12.48;5.38;;;;;;;;;;5004042;28;20593;-50
2024/03/08 06:35:48;;;;;;;11.80;5.15;;;;;;;;;;5004925;28;20236;-50
2024/03/08 06:38:14;;;;;;;11.93;5.10;;;;;;;;;;5007413;28;20196;-50
2024/03/08 06:40:40;;;;;;;13.30;5.72;;;;;;;;;;5007076;28;20864;-50
2024/03/08 06:43:06;;;;;;;12.48;5.70;;;;;;;;;;5001919;28;20212;-50
2024/03/08 06:45:33;;;;;;;9.73;4.97;;;;;;;;;;5007476;28;20188;-50
2024/03/08 06:47:59;;;;;;;10.02;5.85;;;;;;;;;;4998083;28;20445;-50
2024/03/08 06:50:24;;;;;;;11.02;4.75;;;;;;;;;;5004621;28;20183;-50
2024/03/08 06:52:53;;;;;;;8.93;4.47;;;;;;;;;;5009832;28;20618;-50
2024/03/08 06:55:19;;;;;;;13.45;5.40;;;;;;;;;;5007982;28;20180;-50
2024/03/08 06:57:45;;;;;;;8.77;4.60;;;;;;;;;;4994236;28;20193;-50
2024/03/08 07:00:18;;;;;;;8.60;5.13;;;;;;;;;;4996366;28;20184;-50
2024/03/08 07:02:45;;;;;;;11.73;4.47;;;;;;;;;;5004003;28;20232;-51
2024/03/08 07:05:11;;;;;;;7.75;5.28;;;;;;;;;;5013331;28;20199;-51
2024/03/08 07:07:37;;;;;;;10.93;5.30;;;;;;;;;;5012533;28;20262;-51
2024/03/08 07:10:04;;;;;;;9.73;5.50;;;;;;;;;;5004399;28;20176;-51
2024/03/08 07:12:30;;;;;;;11.75;5.13;;;;;;;;;;5001538;28;20204;-51
2024/03/08 07:14:56;;;;;;;9.07;4.93;;;;;;;;;;5010189;28;20261;-51
2024/03/08 07:17:22;;;;;;;6.47;4.68;;;;;;;;;;5006178;28;20212;-51
2024/03/08 07:19:49;;;;;;;7.13;5.07;;;;;;;;;;5001911;28;20578;-51
2024/03/08 07:22:15;;;;;;;8.88;4.90;;;;;;;;;;4997925;28;20196;-51
2024/03/08 07:25:04;;;;;;;9.68;4.80;;;;;;;;;;4994907;28;20231;-51
2024/03/08 07:27:30;;;;;;;8.98;4.80;;;;;;;;;;4989740;28;20179;-51
2024/03/08 07:29:57;;;;;;;9.80;5.15;;;;;;;;;;4990213;28;20181;-50
2024/03/08 07:32:25;;;;;;;6.57;5.07;;;;;;;;;;5008076;28;20192;-50
2024/03/08 07:34:51;;;;;;;8.55;4.65;;;;;;;;;;4991756;28;20275;-51
2024/03/08 07:37:19;;;;;;;8.13;4.97;;;;;;;;;;4994476;28;20185;-51
2024/03/08 07:39:45;;;;;;;8.35;5.43;;;;;;;;;;5002105;28;20519;-51
2024/03/08 07:42:11;;;;;;;7.40;5.15;;;;;;;;;;5001187;28;20216;-50
2024/03/08 07:44:37;;;;;;;10.13;5.82;;;;;;;;;;4995167;28;21831;-51
2024/03/08 07:47:03;;;;;;;7.57;5.03;;;;;;;;;;5011453;28;20193;-50
2024/03/08 07:49:29;;;;;;;9.85;5.65;;;;;;;;;;5007454;28;20517;-51
2024/03/08 07:51:56;;;;;;;8.88;5.03;;;;;;;;;;4994528;28;20469;-50
2024/03/08 07:54:22;;;;;;;8.80;4.90;;;;;;;;;;4989510;28;20192;-50
2024/03/08 07:56:48;;;;;;;7.70;4.88;;;;;;;;;;4989321;28;20203;-51
2024/03/08 07:59:14;;;;;;;7.70;5.20;;;;;;;;;;4991186;28;20208;-50
2024/03/08 08:01:40;;;;;;;8.40;4.78;;;;;;;;;;4992464;28;20599;-50
2024/03/08 08:04:06;;;;;;;7.05;4.75;;;;;;;;;;4999769;28;20445;-50
2024/03/08 08:06:33;;;;;;;6.68;4.88;;;;;;;;;;5014061;28;20260;-50
2024/03/08 08:08:59;;;;;;;7.72;4.97;;;;;;;;;;5007332;28;20280;-50
2024/03/08 08:11:27;;;;;;;8.02;4.60;;;;;;;;;;5006574;28;20327;-50
2024/03/08 08:13:54;;;;;;;8.13;5.22;;;;;;;;;;5012719;28;20185;-50
2024/03/08 08:16:20;;;;;;;7.20;4.85;;;;;;;;;;5003225;28;20177;-50
2024/03/08 08:18:47;;;;;;;7.95;5.20;;;;;;;;;;4998805;28;20228;-51
2024/03/08 08:21:13;;;;;;;8.00;5.10;;;;;;;;;;5014908;28;20184;-50
2024/03/08 08:23:39;;;;;;;6.72;4.90;;;;;;;;;;5009978;28;20204;-50
2024/03/08 08:26:07;;;;;;;7.25;4.68;;;;;;;;;;5013281;28;20203;-50
2024/03/08 08:28:33;;;;;;;7.53;5.28;;;;;;;;;;5013085;28;20192;-50
2024/03/08 08:30:59;;;;;;;6.28;4.82;;;;;;;;;;5006676;28;20192;-50
2024/03/08 08:33:25;;;;;;;7.30;5.22;;;;;;;;;;5008114;28;20184;-51
2024/03/08 08:35:53;;;;;;;6.97;5.18;;;;;;;;;;5012711;28;20500;-50
2024/03/08 08:38:20;;;;;;;9.82;5.07;;;;;;;;;;5012484;28;20271;-50
2024/03/08 08:40:47;;;;;;;6.88;5.57;;;;;;;;;;5014318;28;20188;-50
2024/03/08 08:43:13;;;;;;;8.02;5.25;;;;;;;;;;5013986;28;20211;-50
2024/03/08 08:45:38;;;;;;;5.75;4.40;;;;;;;;;;5015082;28;20268;-50
2024/03/08 08:48:05;;;;;;;6.43;5.05;;;;;;;;;;5013430;28;20173;-50
2024/03/08 08:50:32;;;;;;;6.20;4.60;;;;;;;;;;5009519;28;20227;-51
2024/03/08 08:52:58;;;;;;;7.85;4.97;;;;;;;;;;5012589;28;20274;-51
2024/03/08 08:55:27;;;;;;;6.18;4.65;;;;;;;;;;5013316;28;20189;-50
2024/03/08 08:57:53;;;;;;;8.25;5.22;;;;;;;;;;5015085;28;20359;-50
2024/03/08 09:00:26;;;;;;;6.50;4.57;;;;;;;;;;5014738;28;20181;-51
2024/03/08 09:02:55;;;;;;;8.30;5.15;;;;;;;;;;5014355;28;20270;-50
2024/03/08 09:05:21;;;;;;;7.40;4.75;;;;;;;;;;5004957;28;20519;-51
2024/03/08 09:07:47;;;;;;;6.70;4.35;;;;;;;;;;5030409;28;20224;-50
2024/03/08 09:10:14;;;;;;;6.28;4.90;;;;;;;;;;5004000;28;20189;-50
2024/03/08 09:12:40;;;;;;;7.90;5.40;;;;;;;;;;5010803;28;20544;-50
2024/03/08 09:15:11;;;;;;;5.55;4.45;;;;;;;;;;5006322;28;20204;-50
2024/03/08 09:17:39;;;;;;;7.93;4.97;;;;;;;;;;5009457;28;20212;-51
2024/03/08 09:20:06;;;;;;;6.90;4.85;;;;;;;;;;5011817;28;20586;-49
2024/03/08 09:22:32;;;;;;;6.22;4.57;;;;;;;;;;5008530;28;20239;-50
2024/03/08 09:24:58;;;;;;;5.53;4.93;;;;;;;;;;5013181;28;20239;-51
2024/03/08 09:27:24;;;;;;;7.55;4.90;;;;;;;;;;5006293;28;20210;-49
2024/03/08 09:29:50;;;;;;;5.35;4.47;;;;;;;;;;5014508;28;20169;-51
2024/03/08 09:32:16;;;;;;;6.13;4.65;;;;;;;;;;5004396;28;20196;-50
2024/03/08 09:34:42;;;;;;;7.18;5.10;;;;;;;;;;5014397;28;20199;-51
2024/03/08 09:37:08;;;;;;;6.68;4.80;;;;;;;;;;5013595;28;20556;-50
2024/03/08 09:39:34;;;;;;;5.95;4.05;;;;;;;;;;5013840;28;20191;-50
2024/03/08 09:42:01;;;;;;;5.55;4.40;;;;;;;;;;5012631;28;20204;-51
2024/03/08 09:44:28;;;;;;;4.85;4.10;;;;;;;;;;5014891;28;20183;-50
2024/03/08 09:46:55;;;;;;;6.93;4.80;;;;;;;;;;5026206;28;20192;-50
2024/03/08 09:49:21;;;;;;;6.45;4.75;;;;;;;;;;5013491;28;20180;-49
2024/03/08 09:51:47;;;;;;;5.82;4.68;;;;;;;;;;5014674;28;20210;-51
2024/03/08 09:54:13;;;;;;;5.75;4.68;;;;;;;;;;5030045;28;20187;-50
2024/03/08 09:56:41;;;;;;;5.90;4.32;;;;;;;;;;5012221;28;20487;-51
2024/03/08 09:59:41;;;;;;;6.45;4.68;;;;;;;;;;5012675;28;20181;-50
2024/03/08 10:02:05;;;;;;;5.30;4.38;;;;;;;;;;5007168;28;20213;-50
2024/03/08 10:04:32;;;;;;;5.75;4.53;;;;;;;;;;5013403;28;20187;-50
2024/03/08 10:06:59;;;;;;;6.93;4.53;;;;;;;;;;5008112;28;20187;-51
2024/03/08 10:09:27;;;;;;;5.38;4.32;;;;;;;;;;5001512;28;20635;-51
2024/03/08 10:11:59;;;;;;;5.88;4.82;;;;;;;;;;5007055;28;20181;-51
2024/03/08 10:14:26;;;;;;;6.25;4.43;;;;;;;;;;5008231;28;20192;-50
2024/03/08 10:16:52;;;;;;;6.57;4.50;;;;;;;;;;5005430;28;20543;-51
2024/03/08 10:19:18;;;;;;;5.47;4.38;;;;;;;;;;5022838;28;20563;-51
2024/03/08 10:21:56;;;;;;;5.95;4.18;;;;;;;;;;5013362;28;20235;-51
2024/03/08 10:24:23;;;;;;;5.55;4.47;;;;;;;;;;5007499;28;20195;-51
2024/03/08 10:26:51;;;;;;;7.10;4.78;;;;;;;;;;5005926;28;20263;-51
2024/03/08 10:29:19;;;;;;;6.82;4.40;;;;;;;;;;5006245;28;20181;-50
2024/03/08 10:31:45;;;;;;;5.97;4.32;;;;;;;;;;5009413;28;20184;-50
2024/03/08 10:34:11;;;;;;;5.38;4.45;;;;;;;;;;5007096;28;20196;-50
2024/03/08 10:36:40;;;;;;;5.20;4.30;;;;;;;;;;5006673;28;20189;-50
2024/03/08 10:39:12;;;;;;;5.40;4.05;;;;;;;;;;5007223;28;20230;-50
2024/03/08 10:41:38;;;;;;;4.70;3.95;;;;;;;;;;5005724;28;20211;-49
2024/03/08 10:44:24;;;;;;;5.85;4.30;;;;;;;;;;5010891;28;20180;-50
2024/03/08 10:46:50;;;;;;;5.53;4.20;;;;;;;;;;5005555;28;20168;-50
2024/03/08 10:49:17;;;;;;;4.22;3.83;;;;;;;;;;5009068;28;20211;-51
2024/03/08 10:51:43;;;;;;;6.25;4.05;;;;;;;;;;5002575;28;20291;-51
2024/03/08 10:54:11;;;;;;;5.43;4.25;;;;;;;;;;5000919;28;20647;-50
2024/03/08 10:56:37;;;;;;;4.75;3.85;;;;;;;;;;5001720;28;20181;-50
2024/03/08 10:59:04;;;;;;;4.65;3.92;;;;;;;;;;5007382;28;20181;-50
2024/03/08 11:01:30;;;;;;;6.22;4.20;;;;;;;;;;5010287;28;20257;-49
2024/03/08 11:03:56;;;;;;;4.45;3.78;;;;;;;;;;5013447;28;20195;-51
2024/03/08 11:06:24;;;;;;;5.03;4.00;;;;;;;;;;5010802;28;20189;-49
2024/03/08 11:08:50;;;;;;;3.95;3.55;;;;;;;;;;4997159;28;20826;-50
2024/03/08 11:11:34;;;;;;;4.47;3.67;;;;;;;;;;5009040;28;20574;-50
2024/03/08 11:14:01;;;;;;;4.82;3.88;;;;;;;;;;5005952;28;20207;-50
2024/03/08 11:16:27;;;;;;;3.92;3.42;;;;;;;;;;5004369;28;20184;-51
2024/03/08 11:19:12;;;;;;;4.80;3.85;;;;;;;;;;5008298;28;20177;-50
2024/03/08 11:21:41;;;;;;;5.13;3.90;;;;;;;;;;5004066;28;20480;-51
2024/03/08 11:24:08;;;;;;;6.30;4.50;;;;;;;;;;5000321;28;20603;-51
2024/03/08 11:26:35;;;;;;;4.78;3.40;;;;;;;;;;4999291;28;20240;-51
2024/03/08 11:29:20;;;;;;;6.05;4.38;;;;;;;;;;5001287;28;20183;-51
2024/03/08 11:31:46;;;;;;;4.38;3.65;;;;;;;;;;5001723;28;20207;-51
2024/03/08 11:34:16;;;;;;;4.43;3.70;;;;;;;;;;4996455;28;20232;-51
2024/03/08 11:36:42;;;;;;;4.40;3.55;;;;;;;;;;5010693;28;20212;-51
2024/03/08 11:39:14;;;;;;;5.88;4.00;;;;;;;;;;5009687;28;20470;-51
2024/03/08 11:41:41;;;;;;;3.88;3.33;;;;;;;;;;5009649;28;20208;-50
2024/03/08 11:44:09;;;;;;;4.90;3.50;;;;;;;;;;5011689;28;20172;-51
2024/03/08 11:46:35;;;;;;;4.20;3.55;;;;;;;;;;5009618;28;20207;-51
2024/03/08 11:49:03;;;;;;;3.92;3.38;;;;;;;;;;5014787;28;20169;-50
2024/03/08 11:51:30;;;;;;;4.10;3.30;;;;;;;;;;5010560;28;20211;-50
2024/03/08 11:53:56;;;;;;;5.90;3.60;;;;;;;;;;5011102;28;20176;-51
2024/03/08 11:56:22;;;;;;;4.20;3.45;;;;;;;;;;5011658;28;20580;-50
2024/03/08 11:58:58;;;;;;;3.85;3.42;;;;;;;;;;5013960;28;20184;-50
2024/03/08 12:01:24;;;;;;;4.57;3.90;;;;;;;;;;5015387;28;20215;-50
2024/03/08 12:03:54;;;;;;;4.50;3.75;;;;;;;;;;5011092;28;20489;-50
2024/03/08 12:06:20;;;;;;;4.03;3.35;;;;;;;;;;5007534;28;20293;-51
2024/03/08 12:08:49;;;;;;;4.43;3.53;;;;;;;;;;5008374;28;20470;-51
2024/03/08 12:11:15;;;;;;;4.15;3.75;;;;;;;;;;5014007;28;20665;-50
2024/03/08 12:13:42;;;;;;;4.30;3.90;;;;;;;;;;5001040;28;20251;-51
2024/03/08 12:16:09;;;;;;;3.95;3.55;;;;;;;;;;5007454;28;20212;-50
2024/03/08 12:18:36;;;;;;;4.50;3.03;;;;;;;;;;5007483;28;20191;-51
2024/03/08 12:21:08;;;;;;;7.18;3.65;;;;;;;;;;4998581;28;20184;-51
2024/03/08 12:23:39;;;;;;;3.70;3.30;;;;;;;;;;5004256;28;20219;-51
2024/03/08 12:26:18;;;;;;;13.40;3.67;;;;;;;;;;5010698;28;20180;-50
2024/03/08 12:28:45;;;;;;;5.60;3.50;;;;;;;;;;5007485;28;20483;-50
2024/03/08 12:31:16;;;;;;;7.05;3.90;;;;;;;;;;5009073;28;20177;-53
2024/03/08 12:33:51;;;;;;;6.28;3.30;;;;;;;;;;5014997;28;20180;-51
2024/03/08 12:36:18;;;;;;;5.50;3.92;;;;;;;;;;5007520;28;20194;-52
2024/03/08 12:38:47;;;;;;;4.63;3.65;;;;;;;;;;5009869;28;20230;-51
2024/03/08 12:41:13;;;;;;;6.85;3.95;;;;;;;;;;5006896;28;20203;-51
2024/03/08 12:43:39;;;;;;;10.38;3.75;;;;;;;;;;5006237;28;20478;-51
2024/03/08 12:46:05;;;;;;;8.63;4.20;;;;;;;;;;5005850;28;20196;-51
2024/03/08 12:48:35;;;;;;;4.93;3.92;;;;;;;;;;5003583;28;20248;-52
2024/03/08 12:51:01;;;;;;;6.95;3.80;;;;;;;;;;5009717;28;20272;-51
2024/03/08 12:53:28;;;;;;;6.57;4.28;;;;;;;;;;5007951;28;20280;-53
2024/03/08 12:55:56;;;;;;;6.25;3.92;;;;;;;;;;5006154;28;20191;-52
2024/03/08 12:58:22;;;;;;;5.18;4.00;;;;;;;;;;4998401;28;20575;-51
2024/03/08 13:00:49;;;;;;;4.72;3.75;;;;;;;;;;5011106;28;20204;-51
2024/03/08 13:03:15;;;;;;;6.63;3.88;;;;;;;;;;5012507;28;20219;-52
2024/03/08 13:05:42;;;;;;;5.47;3.60;;;;;;;;;;5011507;28;20539;-51
2024/03/08 13:08:12;;;;;;;5.68;4.20;;;;;;;;;;5004604;28;20224;-52
2024/03/08 13:10:39;;;;;;;4.97;4.10;;;;;;;;;;5013307;28;20188;-51
2024/03/08 13:13:05;;;;;;;6.13;4.25;;;;;;;;;;5004310;28;20185;-52
2024/03/08 13:15:33;;;;;;;6.30;4.50;;;;;;;;;;5005681;28;20787;-52
2024/03/08 13:18:00;;;;;;;5.68;4.55;;;;;;;;;;5004714;28;20223;-52
2024/03/08 13:20:28;;;;;;;5.97;4.50;;;;;;;;;;5007598;28;20242;-51
2024/03/08 13:22:55;;;;;;;7.75;4.28;;;;;;;;;;5024002;28;20294;-51
2024/03/08 13:25:21;;;;;;;7.22;4.57;;;;;;;;;;5012194;28;20629;-52
2024/03/08 13:27:47;;;;;;;4.97;4.10;;;;;;;;;;5026690;28;20276;-51
2024/03/08 13:30:15;;;;;;;4.63;4.05;;;;;;;;;;4997433;28;20184;-52
2024/03/08 13:32:43;;;;;;;5.30;4.15;;;;;;;;;;5012301;28;20180;-51
2024/03/08 13:35:24;;;;;;;5.30;4.07;;;;;;;;;;5000100;28;20173;-51
2024/03/08 13:37:50;;;;;;;6.47;4.25;;;;;;;;;;4999978;28;20555;-51
2024/03/08 13:40:18;;;;;;;6.45;4.45;;;;;;;;;;5008888;28;20201;-51
2024/03/08 13:42:44;;;;;;;6.28;4.78;;;;;;;;;;5014766;28;20471;-52
2024/03/08 13:45:14;;;;;;;8.13;5.78;;;;;;;;;;5004538;28;20533;-51
2024/03/08 13:47:40;;;;;;;6.78;5.78;;;;;;;;;;5013098;28;20215;-51
2024/03/08 13:50:11;;;;;;;6.88;5.25;;;;;;;;;;4998729;28;20200;-51
2024/03/08 13:52:38;;;;;;;6.65;4.88;;;;;;;;;;5008434;28;20567;-51
2024/03/08 13:55:04;;;;;;;7.38;5.07;;;;;;;;;;5011586;28;20307;-51
2024/03/08 13:57:31;;;;;;;6.18;4.82;;;;;;;;;;5006505;28;20184;-51
2024/03/08 13:59:57;;;;;;;6.60;4.60;;;;;;;;;;5002277;28;20303;-51
2024/03/08 14:02:27;;;;;;;7.68;4.90;;;;;;;;;;5009813;28;20648;-51
2024/03/08 14:04:54;;;;;;;6.40;4.90;;;;;;;;;;5011295;28;20348;-52
2024/03/08 14:07:20;;;;;;;7.38;5.07;;;;;;;;;;4999678;28;20496;-51
2024/03/08 14:09:46;;;;;;;6.00;4.60;;;;;;;;;;5008672;28;20219;-52
2024/03/08 14:12:13;;;;;;;7.28;5.05;;;;;;;;;;5012453;28;20188;-53
2024/03/08 14:14:39;;;;;;;8.00;4.85;;;;;;;;;;5012809;28;20208;-51
2024/03/08 14:17:06;;;;;;;5.80;4.50;;;;;;;;;;5006615;28;20212;-52
2024/03/08 14:19:33;;;;;;;6.57;4.90;;;;;;;;;;5008224;28;20923;-51
2024/03/08 14:22:00;;;;;;;6.57;4.90;;;;;;;;;;5008461;28;20542;-51
2024/03/08 14:24:26;;;;;;;6.00;5.10;;;;;;;;;;5006782;28;20279;-51
2024/03/08 14:26:52;;;;;;;19.15;6.13;;;;;;;;;;5010016;28;20267;-49
2024/03/08 14:29:18;;;;;;;23.15;6.03;;;;;;;;;;5007210;28;20844;-50
2024/03/08 14:31:44;;;;;;;15.18;5.72;;;;;;;;;;5009418;28;20422;-47
2024/03/08 14:34:11;;;;;;;12.23;5.28;;;;;;;;;;5005840;28;20188;-51
2024/03/08 14:36:37;;;;;;;11.90;5.07;;;;;;;;;;5005899;28;20531;-48
2024/03/08 14:39:04;;;;;;;7.30;4.50;;;;;;;;;;5003753;28;20200;-47
2024/03/08 14:41:30;;;;;;;9.93;5.03;;;;;;;;;;5003768;28;20192;-49